Santa Perpetua de Mogoda, Spain
Current Conditions -  °F | °C
As of 5:30 AM on Friday 19 Dec 2014 (Local Time) from LEBL Reporting Station
Clear Clear  
Wind Chill: 52°   Ceiling: Unl
Heat Index: 52°   Visibility: 6mi
Dew Point: 48°   Wind: 14mph
Humidity: 88%   Direction: 320°NW
Pressure: 30.3"   Gusts: NA
Location:  41.53°N, 2.18°E
Report Text: LEBL 190430Z 32012KT CAVOK 11/09 Q1026 NOSIG
Loading
Personal Weather Stations






























Interactive Weather Map New forecast layout! Learn more

10-Day Weather Forecast

Advertisements
Track Severe Weather on mobile